Time;durP1;ratioP1;P1;durP2;ratioP2;P2;SDS_P1;SDS_P2;PMS_P1;PMS_P2;Temp;Humidity;BMP_temperature;BMP_pressure;BME280_temperature;BME280_humidity;BME280_pressure;Samples;Min_cycle;Max_cycle;Signal;HPM_P1;HPM_P2
2022/01/26 00:00:20;;;;;;;40.47;22.15;;;4.50;99.90;;;;;;4949829;29;20534;-68
2022/01/26 00:07:58;;;;;;;39.30;23.50;;;4.50;99.90;;;;;;5011364;28;20085;-68
2022/01/26 00:10:25;;;;;;;44.97;25.98;;;4.50;99.90;;;;;;5006912;28;20401;-68
2022/01/26 00:12:52;;;;;;;37.45;22.48;;;4.50;99.90;;;;;;5011540;28;20137;-68
2022/01/26 00:15:19;;;;;;;40.42;25.02;;;4.40;99.90;;;;;;5010115;28;20061;-68
2022/01/26 00:17:46;;;;;;;44.88;23.90;;;4.40;99.90;;;;;;4977748;28;20552;-68
2022/01/26 00:41:09;;;;;;;36.33;20.83;;;4.60;99.90;;;;;;5009214;28;20057;-68
2022/01/26 00:43:37;;;;;;;31.92;19.63;;;4.60;99.90;;;;;;4993024;28;20133;-68
2022/01/26 00:46:06;;;;;;;32.60;19.45;;;4.70;99.90;;;;;;5009317;28;20049;-68
2022/01/26 00:48:36;;;;;;;34.95;20.95;;;4.70;99.90;;;;;;4999283;28;20093;-68
2022/01/26 00:51:05;;;;;;;30.17;19.13;;;4.70;99.90;;;;;;5011304;28;20049;-68
2022/01/26 00:53:44;;;;;;;31.90;20.13;;;4.70;99.90;;;;;;5010285;28;20050;-68
2022/01/26 00:56:12;;;;;;;35.85;21.70;;;4.80;99.90;;;;;;5011876;28;20044;-68
2022/01/26 00:58:39;;;;;;;37.58;22.50;;;4.70;99.90;;;;;;5017706;28;20050;-68
2022/01/26 01:01:06;;;;;;;37.30;22.90;;;4.70;99.90;;;;;;5009904;28;20056;-68
2022/01/26 01:03:36;;;;;;;37.63;23.42;;;4.70;99.90;;;;;;5009889;28;20077;-68
2022/01/26 01:06:11;;;;;;;38.30;22.13;;;4.70;99.90;;;;;;5011177;28;20054;-68
2022/01/26 01:08:40;;;;;;;41.08;24.75;;;4.70;99.90;;;;;;5010110;28;20050;-69
2022/01/26 01:11:08;;;;;;;36.25;22.27;;;4.70;99.90;;;;;;4992492;28;20483;-68
2022/01/26 01:13:38;;;;;;;36.78;21.88;;;4.70;99.90;;;;;;5010617;28;20061;-68
2022/01/26 01:16:06;;;;;;;37.88;22.80;;;4.70;99.90;;;;;;4993945;28;20576;-68
2022/01/26 01:31:55;;;;;;;37.40;20.60;;;4.80;99.90;;;;;;5008306;28;20442;-68
2022/01/26 01:34:27;;;;;;;33.60;21.58;;;4.80;99.90;;;;;;5009640;28;20053;-68
2022/01/26 01:36:55;;;;;;;35.95;19.38;;;4.80;99.90;;;;;;5017898;28;20060;-68
2022/01/26 01:39:22;;;;;;;40.75;22.42;;;4.80;99.90;;;;;;4994089;28;20050;-68
2022/01/26 01:41:50;;;;;;;38.45;23.02;;;4.80;99.90;;;;;;5009556;28;20061;-68
2022/01/26 01:44:17;;;;;;;35.20;22.70;;;4.80;99.90;;;;;;5008279;28;20067;-69
2022/01/26 01:46:45;;;;;;;36.28;21.45;;;4.80;99.90;;;;;;5008080;28;20050;-68
2022/01/26 01:49:12;;;;;;;39.47;22.70;;;4.80;99.90;;;;;;5030579;28;20045;-68
2022/01/26 01:51:44;;;;;;;39.03;21.88;;;4.80;99.90;;;;;;5033840;28;20162;-68
2022/01/26 01:54:16;;;;;;;36.20;21.35;;;4.80;99.90;;;;;;5028281;28;20063;-68
2022/01/26 01:56:44;;;;;;;33.22;20.55;;;4.80;99.90;;;;;;5018350;28;20055;-68
2022/01/26 01:59:11;;;;;;;38.15;22.65;;;4.80;99.90;;;;;;5035593;28;20046;-68
2022/01/26 02:01:38;;;;;;;36.38;23.95;;;4.80;99.90;;;;;;5032724;28;20803;-68
2022/01/26 02:04:05;;;;;;;38.80;20.63;;;4.80;99.90;;;;;;5024094;28;20489;-68
2022/01/26 02:06:32;;;;;;;36.47;22.25;;;4.90;99.90;;;;;;5040440;28;20404;-68
2022/01/26 02:08:59;;;;;;;34.75;21.15;;;4.80;99.90;;;;;;5034358;28;20045;-68
2022/01/26 02:11:26;;;;;;;36.15;22.55;;;4.80;99.90;;;;;;5032898;28;20047;-68
2022/01/26 02:14:21;;;;;;;35.42;21.25;;;4.80;99.90;;;;;;5033788;28;20128;-68
2022/01/26 02:17:14;;;;;;;38.65;22.15;;;4.80;99.90;;;;;;5031967;28;20432;-68
2022/01/26 02:58:04;;;;;;;36.05;21.33;;;4.50;99.90;;;;;;5046044;28;20043;-68
2022/01/26 03:00:55;;;;;;;34.70;21.58;;;4.50;99.90;;;;;;5024886;28;20053;-68
2022/01/26 03:03:27;;;;;;;34.10;21.17;;;4.50;99.90;;;;;;5017544;28;20045;-68
2022/01/26 03:06:03;;;;;;;35.38;20.17;;;4.50;99.90;;;;;;5032511;28;20080;-68
2022/01/26 03:08:35;;;;;;;36.97;21.15;;;4.50;99.90;;;;;;5018507;28;20503;-67
2022/01/26 03:11:12;;;;;;;39.10;23.75;;;4.50;99.90;;;;;;5043363;28;20412;-67
2022/01/26 03:13:51;;;;;;;38.08;19.52;;;4.60;99.90;;;;;;5039209;28;20049;-67
2022/01/26 03:16:31;;;;;;;37.53;21.27;;;4.60;99.90;;;;;;5024697;28;20079;-68
2022/01/26 03:19:05;;;;;;;35.25;19.80;;;4.60;99.90;;;;;;5017700;28;20049;-67
2022/01/26 03:21:48;;;;;;;37.55;21.25;;;4.60;99.90;;;;;;5016083;28;20045;-67
2022/01/26 03:35:15;;;;;;;38.53;22.30;;;4.70;99.90;;;;;;5006182;28;20552;-70
2022/01/26 03:37:50;;;;;;;39.33;22.33;;;4.70;99.90;;;;;;5047532;28;20086;-69
2022/01/26 03:40:18;;;;;;;37.15;21.60;;;4.70;99.90;;;;;;5039964;28;20084;-68
2022/01/26 03:42:45;;;;;;;39.55;21.65;;;4.70;99.90;;;;;;5033324;28;20053;-66
2022/01/26 03:45:13;;;;;;;35.60;20.17;;;4.70;99.90;;;;;;5032747;28;20049;-69
2022/01/26 03:47:39;;;;;;;37.97;22.70;;;4.70;99.90;;;;;;5033573;28;20464;-68
2022/01/26 03:50:07;;;;;;;39.55;23.63;;;4.70;99.90;;;;;;5034532;28;20407;-69
2022/01/26 03:52:34;;;;;;;36.40;21.95;;;4.80;99.90;;;;;;5032343;28;20504;-68
2022/01/26 03:55:02;;;;;;;37.15;24.98;;;4.80;99.90;;;;;;5052621;28;20037;-68
2022/01/26 03:57:29;;;;;;;36.63;21.95;;;4.80;99.90;;;;;;5045844;28;20052;-69
2022/01/26 03:59:56;;;;;;;38.17;22.92;;;4.80;99.90;;;;;;5020674;28;20041;-69
2022/01/26 04:02:23;;;;;;;36.78;22.15;;;4.80;99.90;;;;;;5030420;28;20080;-68
2022/01/26 04:04:56;;;;;;;35.53;20.80;;;4.80;99.90;;;;;;5015047;28;20045;-68
2022/01/26 04:07:23;;;;;;;37.50;22.25;;;4.70;99.90;;;;;;5034963;28;20045;-69
2022/01/26 04:09:51;;;;;;;40.20;23.33;;;4.70;99.90;;;;;;5051977;28;20045;-68
2022/01/26 04:12:18;;;;;;;35.97;21.52;;;4.70;99.90;;;;;;5018497;28;20045;-69
2022/01/26 04:14:52;;;;;;;35.70;20.52;;;4.70;99.90;;;;;;5046250;28;20059;-70
2022/01/26 04:17:19;;;;;;;35.15;21.98;;;4.70;99.90;;;;;;5051806;28;20056;-69
2022/01/26 04:19:53;;;;;;;40.47;21.67;;;4.70;99.90;;;;;;5051269;28;20037;-69
2022/01/26 04:22:31;;;;;;;33.80;20.65;;;4.70;99.90;;;;;;5040028;28;20055;-68
2022/01/26 04:24:58;;;;;;;35.92;19.83;;;4.60;99.90;;;;;;5020878;28;20053;-69
2022/01/26 04:27:35;;;;;;;40.53;24.27;;;4.60;99.90;;;;;;5038823;28;20442;-69
2022/01/26 04:30:03;;;;;;;39.47;21.75;;;4.60;99.90;;;;;;5021257;28;20124;-68
2022/01/26 04:32:30;;;;;;;39.78;21.98;;;4.60;99.90;;;;;;5026536;28;20116;-68
2022/01/26 04:35:01;;;;;;;34.35;20.58;;;4.60;99.90;;;;;;5033460;28;20120;-68
2022/01/26 04:38:14;;;;;;;35.17;20.77;;;4.60;99.90;;;;;;5031386;28;20088;-68
2022/01/26 04:40:21;;;;;;;35.53;20.30;;;4.60;99.90;;;;;;5029807;28;20045;-69
2022/01/26 04:42:59;;;;;;;34.63;20.48;;;4.60;99.90;;;;;;5014091;28;20064;-68
2022/01/26 04:45:26;;;;;;;35.22;20.05;;;4.70;99.90;;;;;;5021898;28;20503;-69
2022/01/26 04:47:53;;;;;;;39.35;21.67;;;4.60;99.90;;;;;;5013720;28;20501;-69
2022/01/26 04:50:20;;;;;;;33.80;18.83;;;4.70;99.90;;;;;;5003092;28;20057;-66
2022/01/26 04:52:46;;;;;;;29.25;18.00;;;4.70;99.90;;;;;;4991307;28;20420;-69
2022/01/26 04:55:14;;;;;;;37.08;20.55;;;4.70;99.90;;;;;;5011111;28;20050;-68
2022/01/26 04:57:40;;;;;;;37.08;20.63;;;4.70;99.90;;;;;;5010811;28;20053;-70
2022/01/26 05:00:12;;;;;;;32.55;19.25;;;4.70;99.90;;;;;;5006921;28;20386;-69
2022/01/26 05:02:39;;;;;;;32.83;19.40;;;4.70;99.90;;;;;;5003853;28;20100;-69
2022/01/26 05:05:07;;;;;;;37.00;21.98;;;4.80;99.90;;;;;;5024311;28;20404;-69
2022/01/26 05:07:34;;;;;;;34.45;18.83;;;4.80;99.90;;;;;;5010195;28;20125;-68
2022/01/26 05:10:03;;;;;;;33.42;19.92;;;4.80;99.90;;;;;;5018292;28;20041;-67
2022/01/26 05:12:30;;;;;;;34.83;19.03;;;4.80;99.90;;;;;;5030897;28;20137;-69
2022/01/26 05:14:57;;;;;;;35.00;19.45;;;4.90;99.90;;;;;;5014843;28;20302;-69
2022/01/26 05:17:24;;;;;;;37.28;21.83;;;4.90;99.90;;;;;;5031354;28;20163;-69
2022/01/26 05:19:56;;;;;;;34.08;19.27;;;4.90;99.90;;;;;;5005050;28;20050;-68
2022/01/26 05:22:23;;;;;;;32.80;20.30;;;4.90;99.90;;;;;;4995406;28;20056;-69
2022/01/26 05:24:52;;;;;;;37.88;21.02;;;4.90;99.90;;;;;;5011141;28;20378;-69
2022/01/26 05:27:19;;;;;;;34.03;19.20;;;4.90;99.90;;;;;;5003818;28;20452;-69
2022/01/26 05:29:46;;;;;;;34.92;20.08;;;5.00;99.90;;;;;;5032507;28;20107;-70
2022/01/26 05:32:13;;;;;;;37.65;20.58;;;4.90;99.90;;;;;;5019342;28;20054;-69
2022/01/26 05:34:40;;;;;;;30.90;20.08;;;5.00;99.90;;;;;;4999108;28;20046;-69
2022/01/26 05:37:07;;;;;;;37.10;21.45;;;5.00;99.90;;;;;;5014866;28;20129;-69
2022/01/26 05:39:37;;;;;;;34.08;22.08;;;5.00;99.90;;;;;;5015425;28;20392;-69
2022/01/26 05:42:06;;;;;;;33.13;19.05;;;5.00;99.90;;;;;;5014964;28;20046;-70
2022/01/26 05:44:33;;;;;;;35.70;21.42;;;5.00;99.90;;;;;;5009835;28;20129;-69
2022/01/26 05:47:00;;;;;;;35.60;19.98;;;5.00;99.90;;;;;;5002935;28;20053;-69
2022/01/26 05:49:27;;;;;;;36.40;21.55;;;5.00;99.90;;;;;;5040615;28;20068;-69
2022/01/26 05:51:54;;;;;;;32.80;19.15;;;5.00;99.90;;;;;;5021452;28;20045;-68
2022/01/26 05:54:21;;;;;;;37.40;20.95;;;5.10;99.90;;;;;;5035334;28;20129;-69
2022/01/26 05:56:48;;;;;;;34.63;19.08;;;5.10;99.90;;;;;;5003131;28;20405;-69
2022/01/26 05:59:20;;;;;;;32.10;18.25;;;5.10;99.90;;;;;;5019689;28;20053;-68
2022/01/26 06:01:48;;;;;;;34.65;19.13;;;5.10;99.90;;;;;;5018831;28;20051;-69
2022/01/26 06:04:15;;;;;;;34.08;19.80;;;5.10;99.90;;;;;;5022094;28;20486;-69
2022/01/26 06:06:42;;;;;;;32.92;19.38;;;5.10;99.90;;;;;;5026242;28;20129;-69
2022/01/26 06:09:09;;;;;;;30.77;18.02;;;5.10;99.90;;;;;;5035126;28;20045;-69
2022/01/26 06:11:37;;;;;;;32.03;18.95;;;5.10;99.90;;;;;;5036843;28;20049;-68
2022/01/26 06:14:04;;;;;;;28.85;16.52;;;5.10;99.90;;;;;;5048102;28;20056;-71
2022/01/26 06:16:31;;;;;;;33.78;18.92;;;5.10;99.90;;;;;;5045947;28;20452;-69
2022/01/26 06:18:58;;;;;;;33.42;19.65;;;5.20;99.90;;;;;;5045696;28;20049;-70
2022/01/26 06:21:25;;;;;;;33.80;18.15;;;5.20;99.90;;;;;;5026074;28;20223;-69
2022/01/26 06:23:52;;;;;;;28.30;18.77;;;5.20;99.90;;;;;;5022988;28;20405;-68
2022/01/26 06:26:19;;;;;;;29.75;18.30;;;5.20;99.90;;;;;;5031430;28;20041;-69
2022/01/26 06:28:46;;;;;;;28.65;18.23;;;5.20;99.90;;;;;;5032711;28;20068;-69
2022/01/26 06:31:15;;;;;;;32.00;18.70;;;5.20;99.90;;;;;;5042385;28;20132;-69
2022/01/26 06:33:43;;;;;;;28.85;17.30;;;5.20;99.90;;;;;;5027960;28;20037;-69
2022/01/26 06:36:12;;;;;;;30.95;18.30;;;5.20;99.90;;;;;;5053322;28;20408;-69
2022/01/26 06:38:43;;;;;;;32.88;20.65;;;5.20;99.90;;;;;;5028301;28;20048;-69
2022/01/26 06:41:10;;;;;;;32.83;17.67;;;5.20;99.90;;;;;;5018959;28;20054;-69
2022/01/26 06:43:46;;;;;;;31.75;18.45;;;5.30;99.90;;;;;;5016269;28;20049;-68
2022/01/26 06:46:21;;;;;;;35.90;19.30;;;5.30;99.90;;;;;;5021171;28;20045;-68
2022/01/26 06:51:47;;;;;;;113.60;72.70;;;5.30;99.90;;;;;;5017323;28;20403;-70
2022/01/26 06:54:14;;;;;;;51.40;35.05;;;5.30;99.90;;;;;;5037357;28;20513;-71
2022/01/26 06:56:41;;;;;;;43.50;27.75;;;5.30;99.90;;;;;;5023560;28;20071;-73
2022/01/26 06:59:08;;;;;;;37.33;22.08;;;5.30;99.90;;;;;;5046315;28;20072;-73
2022/01/26 07:01:35;;;;;;;35.65;21.13;;;5.40;99.90;;;;;;5014681;28;20057;-79
2022/01/26 07:04:02;;;;;;;36.83;21.15;;;5.40;99.90;;;;;;5015797;28;20099;-69
2022/01/26 07:06:29;;;;;;;33.33;19.00;;;5.40;99.90;;;;;;5042549;28;20053;-68
2022/01/26 07:08:56;;;;;;;30.85;17.65;;;5.40;99.90;;;;;;5016686;28;20128;-68
2022/01/26 07:11:23;;;;;;;28.73;17.60;;;5.40;99.90;;;;;;5018556;28;20049;-70
2022/01/26 07:13:53;;;;;;;31.77;19.40;;;5.40;99.90;;;;;;5031348;28;20053;-68
2022/01/26 07:21:53;;;;;;;69.70;43.30;;;5.50;99.90;;;;;;5028272;28;20057;-68
2022/01/26 07:24:20;;;;;;;43.80;27.90;;;5.50;99.90;;;;;;5026797;28;20136;-68
2022/01/26 07:26:53;;;;;;;38.75;23.42;;;5.50;99.90;;;;;;5031154;28;20049;-68
2022/01/26 07:29:24;;;;;;;32.85;20.42;;;5.50;99.90;;;;;;5014449;28;20052;-68
2022/01/26 07:31:52;;;;;;;33.58;20.13;;;5.50;99.90;;;;;;5013870;28;20416;-67
2022/01/26 07:34:23;;;;;;;31.80;18.35;;;5.50;99.90;;;;;;5015076;28;20049;-73
2022/01/26 07:36:53;;;;;;;28.38;15.98;;;5.50;99.90;;;;;;5027848;28;20067;-69
2022/01/26 07:39:40;;;;;;;29.00;17.77;;;5.50;99.90;;;;;;5002988;28;20059;-68
2022/01/26 07:42:10;;;;;;;30.88;17.70;;;5.50;99.90;;;;;;5016708;28;20462;-68
2022/01/26 07:44:37;;;;;;;27.88;18.27;;;5.50;99.90;;;;;;5010395;28;20806;-68
2022/01/26 07:47:05;;;;;;;25.92;15.77;;;5.50;99.90;;;;;;4996608;28;20061;-68
2022/01/26 07:49:33;;;;;;;24.60;15.98;;;5.50;99.90;;;;;;5009209;28;20497;-68
2022/01/26 07:52:01;;;;;;;27.15;15.50;;;5.60;99.90;;;;;;5008420;28;20137;-68
2022/01/26 07:54:32;;;;;;;22.60;15.45;;;5.60;99.90;;;;;;4993689;28;20066;-68
2022/01/26 07:57:01;;;;;;;27.15;16.02;;;5.60;99.90;;;;;;5009440;28;20068;-68
2022/01/26 07:59:28;;;;;;;26.13;16.02;;;5.60;99.90;;;;;;5000127;28;20050;-68
2022/01/26 08:01:56;;;;;;;33.47;16.77;;;5.60;99.90;;;;;;4989348;28;20044;-66
2022/01/26 08:04:24;;;;;;;24.55;14.15;;;5.70;99.90;;;;;;5005683;28;20049;-67
2022/01/26 08:06:53;;;;;;;31.88;16.20;;;5.70;99.90;;;;;;5000957;28;20044;-68
2022/01/26 08:09:20;;;;;;;23.98;14.93;;;5.70;99.90;;;;;;4998521;28;20050;-67
2022/01/26 08:11:49;;;;;;;24.10;16.10;;;5.70;99.90;;;;;;4995369;28;20081;-68
2022/01/26 08:14:16;;;;;;;26.92;17.63;;;5.70;99.90;;;;;;5005704;28;20065;-66
2022/01/26 08:16:44;;;;;;;30.05;18.70;;;5.80;99.90;;;;;;4988849;28;20046;-66
2022/01/26 08:19:16;;;;;;;28.88;16.17;;;5.80;99.90;;;;;;4989220;28;20402;-68
2022/01/26 08:21:43;;;;;;;27.77;16.77;;;5.80;99.90;;;;;;4973519;28;20218;-67
2022/01/26 08:24:13;;;;;;;26.80;16.42;;;5.80;99.90;;;;;;4989586;28;20050;-67
2022/01/26 08:26:45;;;;;;;24.48;13.88;;;5.90;99.90;;;;;;4989490;28;20095;-67
2022/01/26 08:29:24;;;;;;;24.55;16.58;;;5.90;99.90;;;;;;5008114;28;20053;-72
2022/01/26 08:32:03;;;;;;;25.98;16.88;;;6.00;99.90;;;;;;5005398;28;20057;-71
2022/01/26 08:34:33;;;;;;;24.33;15.75;;;6.00;99.90;;;;;;5009295;28;20077;-66
2022/01/26 08:37:00;;;;;;;23.25;13.80;;;6.10;99.90;;;;;;5008423;28;20146;-68
2022/01/26 08:39:27;;;;;;;21.90;13.73;;;6.10;99.90;;;;;;5009423;28;20088;-70
2022/01/26 08:41:54;;;;;;;24.98;15.32;;;6.10;99.90;;;;;;4993144;28;20045;-66
2022/01/26 08:44:21;;;;;;;25.38;15.77;;;6.20;99.90;;;;;;4992697;28;20052;-66
2022/01/26 08:46:48;;;;;;;24.60;16.50;;;6.20;99.90;;;;;;4997323;28;20078;-66
2022/01/26 08:49:18;;;;;;;88.38;60.17;;;6.30;99.90;;;;;;4998584;28;20119;-69
2022/01/26 08:52:00;;;;;;;38.80;23.55;;;6.30;99.90;;;;;;4998125;28;20050;-67
2022/01/26 08:54:27;;;;;;;30.48;18.40;;;6.40;99.90;;;;;;4989093;28;20056;-67
2022/01/26 08:56:54;;;;;;;28.27;16.35;;;6.40;99.90;;;;;;5007059;28;20054;-70
2022/01/26 08:59:23;;;;;;;24.52;15.88;;;6.50;99.90;;;;;;5013386;28;20523;-72
2022/01/26 09:01:50;;;;;;;23.05;14.85;;;6.50;99.90;;;;;;5031388;28;20508;-68
2022/01/26 09:04:18;;;;;;;26.70;14.65;;;6.60;99.90;;;;;;5034598;28;20085;-68
2022/01/26 09:06:54;;;;;;;27.90;16.95;;;6.60;99.90;;;;;;5018659;28;20144;-68
2022/01/26 09:09:24;;;;;;;24.45;15.40;;;6.60;99.90;;;;;;4996901;28;20058;-68
2022/01/26 09:11:53;;;;;;;21.60;13.93;;;6.70;99.90;;;;;;4982814;28;20050;-65
2022/01/26 09:14:26;;;;;;;27.05;16.45;;;6.70;99.90;;;;;;5003700;28;20050;-79
2022/01/26 09:16:54;;;;;;;24.83;14.20;;;6.80;99.90;;;;;;5005059;28;20513;-69
2022/01/26 09:21:59;;;;;;;24.10;14.38;;;6.90;99.90;;;;;;5001964;28;20054;-64
2022/01/26 09:24:30;;;;;;;24.65;14.80;;;6.90;99.90;;;;;;5026080;28;20047;-66
2022/01/26 09:26:57;;;;;;;26.35;16.42;;;7.00;99.90;;;;;;5018402;28;20049;-66
2022/01/26 09:29:25;;;;;;;24.23;16.15;;;7.00;99.90;;;;;;4999817;28;20054;-67
2022/01/26 09:31:51;;;;;;;21.83;13.68;;;7.10;99.90;;;;;;5014260;28;20069;-74
2022/01/26 09:34:20;;;;;;;20.83;13.77;;;7.10;99.90;;;;;;5014500;28;20046;-71
2022/01/26 09:36:47;;;;;;;32.00;21.95;;;7.20;99.90;;;;;;5013366;28;20050;-66
2022/01/26 09:39:15;;;;;;;40.33;26.50;;;7.20;99.90;;;;;;5013479;28;20085;-66
2022/01/26 09:41:44;;;;;;;30.08;17.58;;;7.30;99.90;;;;;;4996952;28;20528;-70
2022/01/26 09:44:13;;;;;;;23.75;15.82;;;7.30;99.30;;;;;;5006661;28;20548;-72
2022/01/26 09:46:43;;;;;;;23.77;15.48;;;7.40;99.30;;;;;;4981597;28;20056;-71
2022/01/26 09:49:10;;;;;;;25.63;16.90;;;7.40;98.90;;;;;;5013709;28;20088;-66
2022/01/26 09:51:42;;;;;;;23.13;15.07;;;7.50;98.90;;;;;;4998054;28;20053;-66
2022/01/26 09:54:15;;;;;;;22.83;14.38;;;7.50;99.00;;;;;;5014149;28;20046;-66
2022/01/26 09:56:43;;;;;;;23.95;15.88;;;7.60;98.00;;;;;;5013939;28;20168;-68
2022/01/26 09:59:10;;;;;;;23.98;16.48;;;7.60;98.50;;;;;;5013677;28;20132;-66
2022/01/26 10:01:48;;;;;;;25.73;16.30;;;7.60;98.40;;;;;;5013554;28;20536;-66
2022/01/26 10:04:24;;;;;;;24.75;15.27;;;7.70;98.30;;;;;;4983088;28;20054;-66
2022/01/26 10:07:02;;;;;;;23.02;14.52;;;7.70;96.50;;;;;;5013824;28;20089;-66
2022/01/26 10:17:43;;;;;;;24.33;16.92;;;7.90;95.80;;;;;;5000275;28;20535;-67
2022/01/26 10:20:14;;;;;;;30.27;19.05;;;7.90;95.70;;;;;;4991245;28;20054;-66
2022/01/26 10:22:41;;;;;;;30.50;17.70;;;7.90;95.60;;;;;;5009636;28;20386;-66
2022/01/26 10:25:14;;;;;;;23.77;15.38;;;7.90;95.80;;;;;;5010107;28;20047;-66
2022/01/26 10:28:01;;;;;;;29.30;16.90;;;8.00;96.20;;;;;;4999869;28;20045;-66
2022/01/26 10:30:28;;;;;;;24.50;15.50;;;8.00;94.80;;;;;;5013213;28;20127;-66
2022/01/26 10:32:54;;;;;;;28.33;16.85;;;8.10;94.70;;;;;;5012340;28;20046;-67
2022/01/26 10:35:22;;;;;;;28.63;17.00;;;8.10;95.10;;;;;;5015066;28;20116;-68
2022/01/26 10:37:53;;;;;;;26.70;18.17;;;8.10;94.60;;;;;;5009593;28;20038;-67
2022/01/26 10:40:24;;;;;;;24.20;17.15;;;8.20;95.50;;;;;;4986837;28;20128;-66
2022/01/26 10:42:57;;;;;;;28.13;19.05;;;8.30;95.80;;;;;;5012832;28;20064;-66
2022/01/26 10:46:04;;;;;;;26.73;17.58;;;8.30;94.50;;;;;;5013887;28;20050;-66
2022/01/26 10:48:40;;;;;;;28.33;16.58;;;8.40;94.30;;;;;;5008190;28;20076;-66
2022/01/26 10:53:49;;;;;;;27.85;16.48;;;8.40;94.00;;;;;;5008968;28;20077;-66
2022/01/26 10:56:16;;;;;;;30.13;17.38;;;8.50;94.30;;;;;;4997672;28;20061;-66
2022/01/26 10:58:43;;;;;;;24.33;16.25;;;8.60;93.70;;;;;;4996455;28;20050;-66
2022/01/26 11:01:10;;;;;;;25.02;16.55;;;8.70;93.30;;;;;;4996606;28;20049;-66
2022/01/26 11:03:38;;;;;;;21.08;13.05;;;8.70;93.30;;;;;;4996769;28;20053;-66
2022/01/26 11:06:07;;;;;;;24.83;14.20;;;8.70;93.00;;;;;;4977336;28;20042;-66
2022/01/26 11:08:38;;;;;;;25.05;14.60;;;8.70;92.10;;;;;;4977361;28;20054;-66
2022/01/26 11:11:06;;;;;;;22.10;14.50;;;8.70;90.60;;;;;;4992745;28;20053;-66
2022/01/26 11:13:39;;;;;;;21.77;14.73;;;8.70;91.10;;;;;;4980087;28;20552;-66
2022/01/26 11:16:10;;;;;;;25.52;14.43;;;8.60;91.70;;;;;;5003702;28;20061;-67
2022/01/26 11:18:58;;;;;;;21.05;13.85;;;8.70;91.60;;;;;;4995119;28;20096;-66
2022/01/26 11:21:34;;;;;;;22.63;13.95;;;8.70;91.10;;;;;;4995384;28;20042;-66
2022/01/26 11:24:06;;;;;;;21.15;13.30;;;8.60;91.80;;;;;;4994537;28;20185;-69
2022/01/26 11:26:33;;;;;;;19.90;12.88;;;8.60;91.90;;;;;;5012282;28;20053;-66
2022/01/26 11:29:00;;;;;;;26.08;15.35;;;8.70;92.30;;;;;;5011643;28;20564;-66
2022/01/26 11:31:32;;;;;;;23.58;14.77;;;8.70;92.20;;;;;;5012041;28;20108;-66
2022/01/26 11:34:14;;;;;;;21.42;14.25;;;8.70;91.60;;;;;;5012106;28;20131;-66
2022/01/26 11:36:42;;;;;;;20.50;14.27;;;8.80;92.30;;;;;;5011867;28;20054;-68
2022/01/26 11:42:13;;;;;;;23.45;14.20;;;8.80;91.80;;;;;;5010260;28;20180;-66
2022/01/26 11:42:18;;;;;;;19.95;13.32;;;8.80;91.90;;;;;;4980232;28;20136;-66
2022/01/26 11:45:06;;;;;;;24.52;14.95;;;8.90;91.80;;;;;;5003664;28;20052;-66
2022/01/26 11:47:35;;;;;;;23.88;15.02;;;8.90;91.90;;;;;;5013744;28;20986;-66
2022/01/26 11:50:10;;;;;;;20.73;13.18;;;9.00;91.20;;;;;;5009748;28;20146;-66
2022/01/26 11:52:38;;;;;;;22.38;14.00;;;9.00;91.50;;;;;;5010726;28;20132;-66
2022/01/26 11:55:23;;;;;;;21.85;14.40;;;9.00;91.20;;;;;;5010303;28;20042;-68
2022/01/26 11:57:53;;;;;;;22.20;14.35;;;9.10;91.30;;;;;;5011533;28;20058;-67
2022/01/26 12:00:43;;;;;;;21.30;14.68;;;9.10;90.50;;;;;;4994441;28;20053;-70
2022/01/26 12:03:30;;;;;;;35.08;26.48;;;9.10;91.20;;;;;;5012126;28;20045;-66
2022/01/26 12:05:58;;;;;;;22.67;15.70;;;9.20;91.20;;;;;;5012567;28;20045;-67
2022/01/26 12:08:30;;;;;;;22.58;14.75;;;9.20;91.20;;;;;;5010814;28;20128;-67
2022/01/26 12:10:57;;;;;;;20.98;13.88;;;9.30;91.30;;;;;;5012176;28;20050;-67
2022/01/26 12:13:26;;;;;;;24.20;13.52;;;9.30;91.00;;;;;;5011803;28;20042;-68
2022/01/26 12:15:56;;;;;;;21.83;13.57;;;9.30;90.60;;;;;;5008468;28;20089;-67
2022/01/26 12:18:41;;;;;;;18.17;12.90;;;9.40;90.50;;;;;;5011382;28;20041;-71
2022/01/26 12:38:10;;;;;;;16.80;11.35;;;9.60;90.50;;;;;;5011279;28;20056;-64
2022/01/26 12:43:49;;;;;;;18.38;11.38;;;9.70;89.40;;;;;;5011210;28;20469;-64
2022/01/26 12:46:18;;;;;;;18.13;11.60;;;9.70;88.90;;;;;;5007261;28;20166;-65
2022/01/26 12:48:57;;;;;;;14.57;10.45;;;9.70;87.90;;;;;;5014708;28;20335;-65
2022/01/26 12:51:25;;;;;;;17.63;11.93;;;9.70;88.60;;;;;;5007613;28;20507;-64
2022/01/26 12:53:54;;;;;;;15.32;10.57;;;9.70;88.40;;;;;;5009806;28;20054;-66
2022/01/26 12:56:24;;;;;;;14.10;9.30;;;9.80;87.60;;;;;;5009850;28;20046;-69
2022/01/26 12:58:59;;;;;;;17.98;9.02;;;10.20;90.60;;;;;;4987581;28;20546;-71
2022/01/26 13:01:26;;;;;;;55.63;40.30;;;10.40;82.00;;;;;;5006932;28;20056;-73
2022/01/26 13:03:59;;;;;;;108.70;30.27;;;10.10;82.50;;;;;;5011283;28;20052;-70
2022/01/26 13:06:31;;;;;;;16.25;11.27;;;9.80;83.60;;;;;;5010072;28;20056;-75
2022/01/26 13:08:59;;;;;;;20.40;11.57;;;9.60;84.30;;;;;;4993452;28;20121;-75
2022/01/26 13:11:34;;;;;;;21.50;12.50;;;9.40;84.90;;;;;;5010469;28;20516;-74
2022/01/26 13:14:19;;;;;;;21.83;10.35;;;9.30;86.00;;;;;;5009878;28;20143;-74
2022/01/26 13:17:20;;;;;;;16.80;9.50;;;9.30;85.30;;;;;;5010581;28;20062;-73
2022/01/26 13:20:03;;;;;;;16.35;10.20;;;9.20;85.50;;;;;;4996254;28;20549;-73
2022/01/26 13:25:33;;;;;;;17.60;10.65;;;9.00;86.60;;;;;;5002823;28;20440;-74
2022/01/26 13:36:21;;;;;;;20.67;11.20;;;8.90;87.00;;;;;;5011378;28;20078;-75
2022/01/26 13:52:51;;;;;;;16.50;9.30;;;8.70;88.20;;;;;;4991466;28;20052;-71
2022/01/26 13:58:04;;;;;;;76.55;55.80;;;8.50;89.20;;;;;;5014809;28;20084;-74
2022/01/26 14:00:39;;;;;;;329.02;232.65;;;8.60;89.80;;;;;;4984541;28;20046;-70
2022/01/26 14:03:09;;;;;;;25.92;18.85;;;8.50;89.70;;;;;;5011036;28;20053;-75
2022/01/26 14:05:36;;;;;;;20.25;11.93;;;8.40;88.40;;;;;;5014217;28;20515;-75
2022/01/26 14:08:04;;;;;;;14.98;10.02;;;8.20;88.40;;;;;;4997515;28;20061;-75
2022/01/26 14:10:32;;;;;;;15.82;9.80;;;8.20;89.50;;;;;;5012357;28;20046;-75
2022/01/26 14:13:00;;;;;;;15.00;8.90;;;8.10;90.00;;;;;;4993628;28;20137;-75
2022/01/26 14:15:39;;;;;;;11.60;8.52;;;8.10;89.30;;;;;;5011365;28;20476;-75
2022/01/26 14:18:35;;;;;;;16.70;8.18;;;8.00;89.90;;;;;;5015061;28;20042;-74
2022/01/26 14:24:29;;;;;;;13.68;7.10;;;7.90;89.80;;;;;;5014927;28;20119;-74
2022/01/26 14:26:24;;;;;;;17.08;8.52;;;7.90;90.10;;;;;;4984974;28;20133;-74
2022/01/26 14:28:53;;;;;;;17.27;8.55;;;7.90;89.80;;;;;;4982604;28;20061;-73
2022/01/26 14:31:32;;;;;;;15.43;8.25;;;7.90;90.10;;;;;;4996692;28;20050;-74
2022/01/26 15:08:43;;;;;;;16.77;10.20;;;7.70;91.00;;;;;;5030723;28;20515;-73
2022/01/26 15:10:52;;;;;;;26.60;15.60;;;7.70;91.50;;;;;;5030222;28;20148;-72
2022/01/26 15:52:09;;;;;;;30.20;16.67;;;7.90;94.00;;;;;;5003944;28;20137;-65
2022/01/26 17:24:17;;;;;;;23.00;15.68;;;7.50;93.20;;;;;;4999624;28;20046;-68
2022/01/26 17:24:41;;;;;;;26.85;16.45;;;7.40;93.70;;;;;;5010643;28;20051;-68
2022/01/26 18:15:51;;;;;;;29.58;17.30;;;7.50;94.30;;;;;;5019690;28;20049;-66
2022/01/26 18:51:30;;;;;;;21.90;12.15;;;7.60;92.10;;;;;;5029632;28;20045;-65
2022/01/26 18:53:57;;;;;;;19.33;13.23;;;7.60;92.00;;;;;;5049408;28;20080;-65
2022/01/26 18:56:24;;;;;;;23.70;12.73;;;7.60;91.10;;;;;;5025359;28;20061;-67
2022/01/26 18:58:51;;;;;;;67.07;55.15;;;7.50;91.00;;;;;;5034657;28;20060;-65
2022/01/26 19:01:18;;;;;;;28.55;19.38;;;7.50;91.00;;;;;;5033328;28;20417;-67
2022/01/26 19:03:46;;;;;;;19.88;13.07;;;7.50;91.20;;;;;;5027367;28;20077;-70
2022/01/26 19:06:13;;;;;;;19.20;14.30;;;7.50;90.80;;;;;;5016137;28;20485;-66
2022/01/26 19:08:41;;;;;;;19.05;13.05;;;7.50;90.70;;;;;;5021149;28;20404;-67
2022/01/26 19:11:10;;;;;;;19.05;13.52;;;7.50;90.90;;;;;;5026896;28;20044;-66
2022/01/26 19:13:37;;;;;;;20.88;13.57;;;7.40;90.90;;;;;;5033638;28;20053;-65
2022/01/26 19:16:14;;;;;;;20.35;11.68;;;7.40;91.30;;;;;;5034945;28;20548;-66
2022/01/26 19:21:20;;;;;;;19.40;12.63;;;7.30;91.30;;;;;;5018157;28;20486;-64
2022/01/26 19:24:03;;;;;;;41.53;27.75;;;7.20;91.80;;;;;;5033157;28;20045;-65
2022/01/26 19:26:36;;;;;;;76.10;57.35;;;7.20;91.90;;;;;;5040368;28;20045;-67
2022/01/26 19:29:15;;;;;;;286.75;223.35;;;7.10;91.50;;;;;;5027819;28;20489;-66
2022/01/26 19:50:51;;;;;;;19.77;12.88;;;6.40;94.50;;;;;;5032250;28;20139;-65
2022/01/26 19:53:18;;;;;;;19.67;12.68;;;6.30;95.10;;;;;;5017177;28;20055;-65
2022/01/26 19:55:45;;;;;;;21.00;13.98;;;6.30;94.90;;;;;;5012251;28;20080;-65
2022/01/26 19:58:12;;;;;;;22.05;14.32;;;6.20;95.50;;;;;;5016314;28;20048;-65
2022/01/26 20:00:44;;;;;;;18.35;12.60;;;6.20;95.70;;;;;;4996540;28;20053;-66